Time;durP1;ratioP1;P1;durP2;ratioP2;P2;SDS_P1;SDS_P2;PMS_P1;PMS_P2;Temp;Humidity;BMP_temperature;BMP_pressure;BME280_temperature;BME280_humidity;BME280_pressure;Samples;Min_cycle;Max_cycle;Signal;HPM_P1;HPM_P2
2022/10/18 00:02:00;;;;;;;62.90;41.35;;;12.50;99.90;;;;;;4929679;29;20041;-67
2022/10/18 00:04:26;;;;;;;70.07;39.72;;;12.50;99.90;;;;;;4929483;29;20052;-67
2022/10/18 00:06:51;;;;;;;57.92;38.58;;;12.50;99.90;;;;;;4929146;29;20075;-67
2022/10/18 00:09:17;;;;;;;69.35;42.97;;;12.50;99.90;;;;;;4928269;29;20043;-67
2022/10/18 00:11:42;;;;;;;69.90;40.80;;;12.40;99.90;;;;;;4929430;29;20071;-68
2022/10/18 00:14:08;;;;;;;63.65;38.00;;;12.50;99.90;;;;;;4930264;29;20493;-67
2022/10/18 00:16:34;;;;;;;61.42;40.17;;;12.40;99.90;;;;;;4929077;29;20051;-67
2022/10/18 00:18:59;;;;;;;57.42;36.67;;;12.40;99.90;;;;;;4930118;29;20130;-67
2022/10/18 00:21:26;;;;;;;52.03;35.60;;;12.40;99.90;;;;;;4929408;29;20095;-67
2022/10/18 00:23:52;;;;;;;69.82;37.83;;;12.40;99.90;;;;;;4940901;29;20048;-67
2022/10/18 00:26:20;;;;;;;69.50;41.38;;;12.40;99.90;;;;;;4929729;29;20046;-67
2022/10/18 00:28:48;;;;;;;68.50;37.33;;;12.40;99.90;;;;;;4928757;29;20063;-67
2022/10/18 00:31:23;;;;;;;63.85;40.08;;;12.30;99.90;;;;;;4929300;29;20083;-67
2022/10/18 00:33:51;;;;;;;81.13;45.90;;;12.30;99.90;;;;;;4933185;29;20054;-67
2022/10/18 00:36:17;;;;;;;61.97;38.88;;;12.30;99.90;;;;;;4929067;29;20048;-67
2022/10/18 00:38:43;;;;;;;65.78;39.75;;;12.40;99.90;;;;;;4928208;29;20044;-67
2022/10/18 00:41:12;;;;;;;77.15;41.55;;;12.30;99.90;;;;;;4930414;28;20584;-67
2022/10/18 00:44:10;;;;;;;59.72;39.70;;;12.40;99.90;;;;;;4929108;29;20040;-67
2022/10/18 00:46:40;;;;;;;57.28;38.30;;;12.60;99.90;;;;;;4897746;29;20048;-67
2022/10/18 00:49:14;;;;;;;66.97;39.03;;;12.20;99.90;;;;;;4929429;29;20460;-67
2022/10/18 00:51:48;;;;;;;68.22;39.30;;;12.30;99.90;;;;;;4930500;29;20524;-68
2022/10/18 00:54:16;;;;;;;67.40;40.92;;;12.30;99.90;;;;;;4921421;29;20048;-67
2022/10/18 00:56:43;;;;;;;65.85;38.25;;;12.30;99.90;;;;;;4930328;28;20036;-67
2022/10/18 00:59:10;;;;;;;73.97;42.87;;;12.30;99.90;;;;;;4928456;29;20150;-67
2022/10/18 01:01:36;;;;;;;67.65;41.05;;;12.20;99.90;;;;;;4930124;29;20460;-67
2022/10/18 01:04:02;;;;;;;69.15;42.38;;;12.30;99.90;;;;;;4929744;29;20043;-67
2022/10/18 01:06:29;;;;;;;81.95;45.83;;;12.20;99.90;;;;;;4930265;29;20059;-67
2022/10/18 01:09:29;;;;;;;71.70;42.75;;;12.30;99.90;;;;;;4930501;29;20052;-67
2022/10/18 01:12:29;;;;;;;65.75;39.42;;;12.20;99.90;;;;;;4943769;29;20052;-67
2022/10/18 01:15:07;;;;;;;75.93;45.33;;;12.30;99.90;;;;;;4927710;29;20055;-67
2022/10/18 01:17:48;;;;;;;73.60;42.08;;;12.30;99.90;;;;;;4929495;29;20090;-67
2022/10/18 01:20:43;;;;;;;65.82;41.28;;;12.30;99.90;;;;;;4928337;29;20040;-67
2022/10/18 01:23:14;;;;;;;71.78;40.47;;;12.30;99.90;;;;;;4930344;29;20143;-68
2022/10/18 01:26:15;;;;;;;75.93;44.22;;;12.20;99.90;;;;;;4944780;29;20060;-67
2022/10/18 01:29:10;;;;;;;84.72;44.15;;;12.30;99.90;;;;;;4928302;29;20778;-67
2022/10/18 01:31:45;;;;;;;79.88;44.97;;;12.30;99.90;;;;;;4933286;28;20422;-67
2022/10/18 01:34:15;;;;;;;73.65;40.65;;;12.20;99.90;;;;;;4929826;29;20462;-67
2022/10/18 01:36:45;;;;;;;77.82;44.65;;;12.20;99.90;;;;;;4929707;29;20058;-67
2022/10/18 01:39:16;;;;;;;77.13;44.83;;;12.20;99.90;;;;;;4929589;29;20054;-67
2022/10/18 01:41:45;;;;;;;71.25;41.88;;;12.20;99.90;;;;;;4929279;29;20051;-67
2022/10/18 01:44:18;;;;;;;77.22;43.28;;;12.20;99.90;;;;;;4930422;29;20052;-67
2022/10/18 01:46:45;;;;;;;75.57;43.30;;;12.20;99.90;;;;;;4929764;29;20111;-67
2022/10/18 01:49:11;;;;;;;71.63;40.83;;;12.20;99.90;;;;;;4931046;29;20056;-67
2022/10/18 01:51:37;;;;;;;70.60;40.17;;;12.20;99.90;;;;;;4933470;29;20306;-67
2022/10/18 01:54:03;;;;;;;68.93;40.25;;;12.20;99.90;;;;;;4932649;29;20052;-67
2022/10/18 01:56:32;;;;;;;65.00;39.97;;;12.10;99.90;;;;;;4933061;29;20051;-67
2022/10/18 01:59:13;;;;;;;78.05;43.33;;;12.20;99.90;;;;;;4932164;29;20178;-67
2022/10/18 02:01:49;;;;;;;75.82;43.70;;;12.20;99.90;;;;;;4933384;29;20047;-67
2022/10/18 02:04:57;;;;;;;64.70;42.95;;;12.20;99.90;;;;;;4932550;29;20496;-67
2022/10/18 02:07:41;;;;;;;59.33;37.55;;;12.10;99.90;;;;;;4910171;29;20416;-67
2022/10/18 02:10:16;;;;;;;65.70;42.28;;;12.10;99.90;;;;;;4925450;29;20559;-67
2022/10/18 02:12:45;;;;;;;61.17;40.33;;;12.10;99.90;;;;;;4931198;29;21628;-67
2022/10/18 02:15:14;;;;;;;61.38;40.78;;;12.10;99.90;;;;;;4933061;28;20177;-67
2022/10/18 02:17:41;;;;;;;90.90;45.13;;;12.00;99.90;;;;;;4932932;29;20048;-67
2022/10/18 02:20:08;;;;;;;76.88;42.50;;;12.00;99.90;;;;;;4947663;29;20047;-68
2022/10/18 02:22:38;;;;;;;82.90;44.80;;;12.10;99.90;;;;;;4931986;29;20054;-67
2022/10/18 02:25:09;;;;;;;63.20;40.00;;;12.00;99.90;;;;;;4932807;29;20048;-67
2022/10/18 02:27:36;;;;;;;71.47;44.42;;;12.10;99.90;;;;;;4932078;29;20047;-67
2022/10/18 02:30:02;;;;;;;60.25;39.80;;;12.00;99.90;;;;;;4931912;29;20048;-67
2022/10/18 02:32:37;;;;;;;66.25;38.83;;;12.00;99.90;;;;;;4932143;29;20059;-67
2022/10/18 02:35:08;;;;;;;55.78;37.65;;;12.00;99.90;;;;;;4931100;29;20839;-67
2022/10/18 02:37:37;;;;;;;58.55;39.72;;;12.00;99.90;;;;;;4932190;29;20111;-67
2022/10/18 02:40:05;;;;;;;56.38;38.67;;;12.10;99.90;;;;;;4930569;29;20579;-67
2022/10/18 02:42:38;;;;;;;71.53;41.50;;;12.00;99.90;;;;;;4931665;29;20044;-67
2022/10/18 02:45:05;;;;;;;238.13;60.88;;;12.10;99.90;;;;;;4932765;29;20833;-67
2022/10/18 02:47:31;;;;;;;65.60;41.72;;;12.10;99.90;;;;;;4932936;29;20795;-67
2022/10/18 02:49:57;;;;;;;66.00;40.05;;;12.10;99.90;;;;;;4931068;29;20066;-67
2022/10/18 02:52:23;;;;;;;57.00;39.30;;;12.10;99.90;;;;;;4932420;29;20745;-67
2022/10/18 02:54:49;;;;;;;56.58;38.65;;;12.10;99.90;;;;;;4932235;29;20050;-67
2022/10/18 02:57:14;;;;;;;57.35;38.47;;;12.10;99.90;;;;;;4945988;29;20102;-67
2022/10/18 02:59:40;;;;;;;53.83;37.67;;;12.00;99.90;;;;;;4931195;29;20052;-67
2022/10/18 03:02:05;;;;;;;54.90;39.60;;;12.00;99.90;;;;;;4931959;29;20052;-67
2022/10/18 03:04:31;;;;;;;67.30;42.20;;;12.00;99.90;;;;;;4931914;29;20130;-67
2022/10/18 03:06:56;;;;;;;60.65;39.30;;;12.00;99.90;;;;;;4931969;29;20062;-67
2022/10/18 03:09:22;;;;;;;58.97;38.53;;;12.00;99.90;;;;;;4932300;28;20051;-67
2022/10/18 03:11:48;;;;;;;62.25;40.75;;;12.00;99.90;;;;;;4932216;29;20775;-67
2022/10/18 03:14:13;;;;;;;75.88;43.30;;;12.00;99.90;;;;;;4945472;29;20457;-67
2022/10/18 03:16:39;;;;;;;58.08;37.50;;;12.10;99.90;;;;;;4914778;29;20036;-67
2022/10/18 03:19:05;;;;;;;53.35;37.97;;;12.00;99.90;;;;;;4946582;29;20548;-67
2022/10/18 03:21:30;;;;;;;58.58;38.67;;;12.00;99.90;;;;;;4931382;29;20530;-67
2022/10/18 03:23:57;;;;;;;60.30;39.13;;;12.00;99.90;;;;;;4931220;29;20741;-67
2022/10/18 03:26:23;;;;;;;103.13;44.50;;;12.00;99.90;;;;;;4931925;29;20078;-67
2022/10/18 03:28:48;;;;;;;61.70;39.05;;;12.00;99.90;;;;;;4929669;29;20098;-67
2022/10/18 03:31:14;;;;;;;59.95;40.40;;;12.00;99.90;;;;;;4931359;29;20043;-67
2022/10/18 03:33:40;;;;;;;98.95;42.92;;;12.00;99.90;;;;;;4931090;29;20098;-67
2022/10/18 03:36:05;;;;;;;60.58;38.20;;;12.10;99.90;;;;;;4931474;29;20048;-68
2022/10/18 03:38:31;;;;;;;73.03;41.97;;;12.00;99.90;;;;;;4930277;29;20044;-67
2022/10/18 03:40:56;;;;;;;138.50;45.97;;;12.00;99.90;;;;;;4931544;29;20090;-67
2022/10/18 03:43:22;;;;;;;112.75;47.13;;;12.00;99.90;;;;;;4931107;29;20071;-67
2022/10/18 03:45:48;;;;;;;58.17;38.35;;;12.00;99.90;;;;;;4929185;29;20408;-67
2022/10/18 03:48:13;;;;;;;57.13;39.08;;;12.00;99.90;;;;;;4939577;29;20040;-67
2022/10/18 03:50:39;;;;;;;58.58;36.60;;;11.90;99.90;;;;;;4929849;29;20122;-67
2022/10/18 03:53:05;;;;;;;77.05;40.42;;;12.00;99.90;;;;;;4930962;29;20151;-67
2022/10/18 03:55:30;;;;;;;69.88;40.83;;;12.00;99.90;;;;;;4931358;29;20914;-67
2022/10/18 03:57:57;;;;;;;79.47;40.00;;;12.00;99.90;;;;;;4930641;29;20051;-67
2022/10/18 04:00:22;;;;;;;373.35;69.53;;;12.00;99.90;;;;;;4930435;29;20496;-67
2022/10/18 04:02:48;;;;;;;69.35;39.92;;;12.00;99.90;;;;;;4929771;29;20069;-67
2022/10/18 04:05:14;;;;;;;65.13;42.08;;;12.00;99.90;;;;;;4931311;29;20035;-67
2022/10/18 04:07:39;;;;;;;57.85;39.88;;;12.00;99.90;;;;;;4931110;29;20044;-67
2022/10/18 04:10:05;;;;;;;57.92;38.60;;;12.00;99.90;;;;;;4930964;29;20833;-67
2022/10/18 04:12:32;;;;;;;62.50;41.50;;;12.00;99.90;;;;;;4930758;29;20052;-67
2022/10/18 04:14:58;;;;;;;62.47;38.72;;;12.00;99.90;;;;;;4931076;29;20373;-67
2022/10/18 04:17:23;;;;;;;94.55;43.65;;;12.00;99.90;;;;;;4930990;29;20095;-67
2022/10/18 04:19:49;;;;;;;57.42;39.22;;;12.00;99.90;;;;;;4930026;29;20054;-67
2022/10/18 04:22:14;;;;;;;59.25;39.97;;;12.00;99.90;;;;;;4931756;29;20138;-67
2022/10/18 04:24:40;;;;;;;64.55;41.00;;;12.00;99.90;;;;;;4930297;29;20039;-67
2022/10/18 04:27:06;;;;;;;61.50;41.03;;;12.00;99.90;;;;;;4943710;28;20127;-67
2022/10/18 04:29:32;;;;;;;64.63;41.35;;;12.00;99.90;;;;;;4930207;29;20047;-67
2022/10/18 04:31:58;;;;;;;60.38;37.80;;;12.00;99.90;;;;;;4931112;29;20071;-66
2022/10/18 04:34:24;;;;;;;64.70;40.25;;;12.00;99.90;;;;;;4929481;29;20505;-67
2022/10/18 04:36:49;;;;;;;88.43;43.15;;;12.10;99.90;;;;;;4927076;29;20055;-67
2022/10/18 04:39:15;;;;;;;67.28;40.10;;;12.10;99.90;;;;;;4929725;29;20080;-67
2022/10/18 04:41:41;;;;;;;192.95;52.22;;;12.10;99.90;;;;;;4926987;29;20098;-67
2022/10/18 04:44:07;;;;;;;102.97;46.33;;;12.10;99.90;;;;;;4929318;29;20082;-66
2022/10/18 04:46:33;;;;;;;81.90;42.63;;;12.10;99.90;;;;;;4930341;29;20043;-67
2022/10/18 04:49:00;;;;;;;147.30;51.13;;;12.10;99.90;;;;;;4929865;29;20060;-67
2022/10/18 04:51:29;;;;;;;184.50;53.97;;;12.10;99.90;;;;;;4930253;29;20055;-67
2022/10/18 04:53:55;;;;;;;177.25;53.15;;;12.00;99.90;;;;;;4929805;29;20055;-67
2022/10/18 04:56:21;;;;;;;76.40;42.45;;;12.10;99.90;;;;;;4929376;29;20464;-67
2022/10/18 04:58:47;;;;;;;72.38;42.78;;;12.00;99.90;;;;;;4927162;29;20823;-67
2022/10/18 05:01:13;;;;;;;78.18;42.72;;;12.10;99.90;;;;;;4930472;29;20043;-67
2022/10/18 05:03:38;;;;;;;132.02;48.28;;;12.10;99.90;;;;;;4925124;29;20066;-67
2022/10/18 05:06:04;;;;;;;60.20;37.20;;;12.10;99.90;;;;;;4930281;29;20046;-67
2022/10/18 05:08:31;;;;;;;69.03;43.05;;;12.10;99.90;;;;;;4929369;29;20058;-67
2022/10/18 05:10:58;;;;;;;63.95;40.17;;;12.20;99.90;;;;;;4929345;29;20048;-67
2022/10/18 05:13:24;;;;;;;81.82;42.25;;;12.00;99.90;;;;;;4929403;29;20036;-67
2022/10/18 05:15:49;;;;;;;56.78;37.17;;;12.10;99.90;;;;;;4930267;29;20122;-67
2022/10/18 05:18:15;;;;;;;57.30;37.83;;;12.10;99.90;;;;;;4929718;29;20520;-67
2022/10/18 05:20:40;;;;;;;55.28;35.75;;;12.10;99.90;;;;;;4931253;29;20051;-67
2022/10/18 05:23:09;;;;;;;160.60;50.20;;;12.10;99.90;;;;;;4928340;29;20054;-67
2022/10/18 05:25:41;;;;;;;55.10;36.38;;;12.00;99.90;;;;;;4933003;29;20738;-66
2022/10/18 05:28:07;;;;;;;60.90;35.65;;;12.10;99.90;;;;;;4933479;29;20051;-67
2022/10/18 05:30:32;;;;;;;63.75;37.10;;;12.00;99.90;;;;;;4932268;29;20535;-67
2022/10/18 05:32:58;;;;;;;59.17;36.92;;;12.00;99.90;;;;;;4931469;29;20051;-68
2022/10/18 05:35:24;;;;;;;67.10;37.83;;;12.00;99.90;;;;;;4934186;29;20163;-67
2022/10/18 05:37:49;;;;;;;49.72;33.50;;;12.00;99.90;;;;;;4948158;29;20059;-67
2022/10/18 05:40:15;;;;;;;53.47;35.47;;;12.10;99.90;;;;;;4932742;29;20420;-67
2022/10/18 05:42:41;;;;;;;51.00;34.78;;;12.00;99.90;;;;;;4933211;29;20075;-67
2022/10/18 05:45:07;;;;;;;49.00;35.20;;;12.00;99.90;;;;;;4933441;29;20118;-67
2022/10/18 05:47:32;;;;;;;55.38;36.47;;;12.00;99.90;;;;;;4933162;29;20429;-67
2022/10/18 05:49:58;;;;;;;49.80;32.88;;;12.00;99.90;;;;;;4932290;29;20098;-67
2022/10/18 05:52:24;;;;;;;143.43;45.95;;;12.00;99.90;;;;;;4932034;29;20047;-67
2022/10/18 05:54:49;;;;;;;51.53;33.33;;;11.90;99.90;;;;;;4933164;29;20888;-67
2022/10/18 05:57:16;;;;;;;53.30;32.65;;;11.90;99.90;;;;;;4933686;29;20056;-67
2022/10/18 05:59:43;;;;;;;63.60;36.95;;;12.00;99.90;;;;;;4948149;29;20083;-67
2022/10/18 06:02:10;;;;;;;63.55;36.67;;;11.90;99.90;;;;;;4931935;29;20039;-67
2022/10/18 06:04:35;;;;;;;57.53;35.60;;;12.00;99.90;;;;;;4932602;29;20516;-67
2022/10/18 06:07:10;;;;;;;57.50;37.05;;;11.90;99.90;;;;;;4936092;29;20131;-67
2022/10/18 06:09:36;;;;;;;55.95;34.17;;;11.90;99.90;;;;;;4930712;29;20048;-67
2022/10/18 06:12:03;;;;;;;54.95;32.92;;;11.90;99.90;;;;;;4933042;29;20094;-67
2022/10/18 06:14:30;;;;;;;52.20;30.15;;;12.00;99.90;;;;;;4932783;29;20834;-67
2022/10/18 06:16:56;;;;;;;73.40;35.53;;;11.90;99.90;;;;;;4932315;29;20522;-67
2022/10/18 06:19:22;;;;;;;58.92;33.65;;;11.90;99.90;;;;;;4933326;29;20036;-68
2022/10/18 06:21:48;;;;;;;59.35;31.77;;;11.90;99.90;;;;;;4932618;29;20090;-67
2022/10/18 06:24:13;;;;;;;142.27;40.80;;;11.80;99.90;;;;;;4932252;29;20048;-68
2022/10/18 06:26:39;;;;;;;54.38;29.65;;;11.90;99.90;;;;;;4931541;29;20071;-67
2022/10/18 06:29:05;;;;;;;173.73;44.33;;;11.90;99.90;;;;;;4932019;29;20855;-67
2022/10/18 06:31:31;;;;;;;53.58;30.30;;;11.90;99.90;;;;;;4931842;29;20044;-67
2022/10/18 06:33:57;;;;;;;57.75;30.45;;;11.90;99.90;;;;;;4932314;29;20043;-67
2022/10/18 06:36:24;;;;;;;53.33;31.90;;;11.80;99.90;;;;;;4930336;29;20408;-67
2022/10/18 06:38:50;;;;;;;87.78;33.22;;;11.80;99.90;;;;;;4929695;29;20090;-67
2022/10/18 06:41:19;;;;;;;47.83;29.13;;;11.80;99.90;;;;;;4931502;29;20055;-67
2022/10/18 06:43:55;;;;;;;46.58;28.08;;;11.80;99.90;;;;;;4931139;29;20050;-67
2022/10/18 06:46:21;;;;;;;57.08;29.55;;;11.80;99.90;;;;;;4931418;29;20086;-67
2022/10/18 06:48:46;;;;;;;61.92;31.67;;;11.80;99.90;;;;;;4946176;29;20071;-67
2022/10/18 06:51:12;;;;;;;55.53;30.67;;;11.80;99.90;;;;;;4929748;29;20039;-67
2022/10/18 06:53:38;;;;;;;46.08;27.08;;;11.80;99.90;;;;;;4930350;29;20054;-67
2022/10/18 06:56:06;;;;;;;42.20;27.40;;;12.00;99.90;;;;;;4932106;29;20058;-67
2022/10/18 06:58:33;;;;;;;50.72;27.33;;;11.80;99.90;;;;;;4931885;29;20043;-67
2022/10/18 07:01:05;;;;;;;45.97;27.05;;;11.80;99.90;;;;;;4930750;29;20758;-67
2022/10/18 07:03:33;;;;;;;42.95;25.77;;;11.80;99.90;;;;;;4931167;29;20085;-68
2022/10/18 07:06:07;;;;;;;44.20;26.95;;;11.80;99.90;;;;;;4933895;29;20053;-67
2022/10/18 07:08:33;;;;;;;44.63;26.00;;;11.80;99.90;;;;;;4930173;29;20043;-67
2022/10/18 07:10:59;;;;;;;55.40;27.35;;;11.80;99.90;;;;;;4929407;29;20096;-67
2022/10/18 07:13:29;;;;;;;71.85;28.15;;;11.70;99.90;;;;;;4928229;29;20139;-67
2022/10/18 07:16:13;;;;;;;43.95;28.20;;;11.90;99.90;;;;;;4930373;29;20178;-68
2022/10/18 07:18:43;;;;;;;39.97;24.95;;;11.90;99.90;;;;;;4942415;29;20532;-67
2022/10/18 07:21:11;;;;;;;41.58;26.33;;;11.90;99.90;;;;;;4945823;28;20044;-67
2022/10/18 07:23:40;;;;;;;42.63;25.90;;;11.90;99.90;;;;;;4931657;29;20052;-67
2022/10/18 07:26:19;;;;;;;35.45;24.60;;;11.90;99.90;;;;;;4931676;29;20056;-67
2022/10/18 07:28:46;;;;;;;48.13;28.30;;;11.90;99.90;;;;;;4928541;29;20079;-67
2022/10/18 07:31:13;;;;;;;64.88;29.00;;;12.00;99.90;;;;;;4930168;29;20056;-67
2022/10/18 07:33:41;;;;;;;38.75;26.70;;;12.00;99.90;;;;;;4929498;29;20047;-67
2022/10/18 07:36:09;;;;;;;34.70;23.05;;;11.90;99.90;;;;;;4931003;29;20066;-68
2022/10/18 07:38:35;;;;;;;27.35;19.67;;;12.00;99.90;;;;;;4931193;29;20382;-69
2022/10/18 07:41:03;;;;;;;46.08;23.85;;;12.00;99.90;;;;;;4931419;29;20732;-68
2022/10/18 07:43:29;;;;;;;42.47;22.88;;;12.10;99.90;;;;;;4929591;28;20094;-68
2022/10/18 07:45:57;;;;;;;33.75;22.48;;;12.00;99.90;;;;;;4931732;29;20071;-68
2022/10/18 07:48:23;;;;;;;38.78;22.98;;;12.00;99.90;;;;;;4929836;29;20102;-68
2022/10/18 07:50:49;;;;;;;35.38;24.58;;;12.00;99.90;;;;;;4945900;28;20416;-68
2022/10/18 07:53:15;;;;;;;49.28;24.42;;;12.10;99.90;;;;;;4931410;29;20051;-68
2022/10/18 07:55:41;;;;;;;46.35;25.08;;;12.10;99.90;;;;;;4929310;29;20078;-69
2022/10/18 07:58:06;;;;;;;53.05;24.88;;;12.10;99.90;;;;;;4930186;29;20072;-68
2022/10/18 08:00:32;;;;;;;61.40;25.27;;;12.20;99.90;;;;;;4930090;29;20502;-68
2022/10/18 08:02:58;;;;;;;33.90;22.38;;;12.10;99.90;;;;;;4927842;29;20044;-68
2022/10/18 08:05:25;;;;;;;40.38;22.55;;;12.20;99.90;;;;;;4944515;29;20130;-69
2022/10/18 08:07:52;;;;;;;33.17;22.45;;;12.20;99.90;;;;;;4913358;29;20107;-69
2022/10/18 08:10:18;;;;;;;49.03;23.25;;;12.20;99.90;;;;;;4927523;29;20562;-68
2022/10/18 08:12:44;;;;;;;30.08;21.83;;;12.30;99.90;;;;;;4936253;29;20051;-68
2022/10/18 08:15:10;;;;;;;33.72;27.10;;;12.40;99.90;;;;;;4928433;29;20048;-68
2022/10/18 08:17:36;;;;;;;38.22;21.17;;;12.40;99.90;;;;;;4929784;29;20441;-67
2022/10/18 08:20:02;;;;;;;29.25;19.95;;;12.40;99.90;;;;;;4945751;29;20152;-68
2022/10/18 08:22:28;;;;;;;26.70;20.23;;;12.50;99.90;;;;;;4930150;29;20062;-68
2022/10/18 08:24:54;;;;;;;32.53;21.40;;;12.50;99.90;;;;;;4930661;29;20056;-67
2022/10/18 08:27:19;;;;;;;32.20;20.23;;;12.50;99.90;;;;;;4944247;29;20553;-67
2022/10/18 08:29:45;;;;;;;39.90;21.48;;;12.50;99.90;;;;;;4930538;29;20059;-68
2022/10/18 08:32:12;;;;;;;40.92;21.35;;;12.60;99.90;;;;;;4930307;29;20050;-68
2022/10/18 08:34:38;;;;;;;37.25;21.80;;;12.60;99.90;;;;;;4930433;29;20497;-68
2022/10/18 08:37:04;;;;;;;29.10;21.55;;;12.70;99.90;;;;;;4930838;29;20043;-68
2022/10/18 08:39:29;;;;;;;33.40;21.75;;;12.70;99.90;;;;;;4929171;29;20420;-68
2022/10/18 08:42:10;;;;;;;36.13;20.80;;;12.90;99.90;;;;;;4929411;29;20066;-67
2022/10/18 08:44:48;;;;;;;34.45;21.77;;;13.00;99.90;;;;;;4922967;29;20052;-68
2022/10/18 08:47:20;;;;;;;35.85;22.52;;;13.00;99.90;;;;;;4929786;29;20464;-68
2022/10/18 08:49:54;;;;;;;42.45;23.27;;;13.10;99.90;;;;;;4930335;29;20572;-68
2022/10/18 08:52:25;;;;;;;38.47;22.42;;;13.20;99.90;;;;;;4930341;29;20071;-68
2022/10/18 08:55:02;;;;;;;34.40;22.33;;;13.30;99.90;;;;;;4925998;29;20052;-68
2022/10/18 08:57:30;;;;;;;35.45;21.00;;;13.30;99.90;;;;;;4917348;29;20082;-68
2022/10/18 08:59:55;;;;;;;35.50;21.08;;;13.40;99.90;;;;;;4930196;29;20404;-68
2022/10/18 09:02:41;;;;;;;45.88;24.73;;;13.50;99.90;;;;;;4930279;29;20040;-68
2022/10/18 09:05:53;;;;;;;33.33;20.95;;;13.60;99.90;;;;;;4929253;29;20055;-68
2022/10/18 09:08:36;;;;;;;41.22;18.38;;;13.80;99.90;;;;;;4882569;29;20081;-68
2022/10/18 09:11:09;;;;;;;39.67;21.35;;;13.80;99.90;;;;;;4930081;29;20063;-68
2022/10/18 09:13:50;;;;;;;26.70;16.58;;;13.90;99.90;;;;;;4929821;29;20424;-68
2022/10/18 09:16:26;;;;;;;26.98;17.10;;;14.00;99.90;;;;;;4918187;29;20039;-68
2022/10/18 09:18:52;;;;;;;36.25;16.85;;;14.20;99.90;;;;;;4930764;29;20088;-68
2022/10/18 09:21:41;;;;;;;40.58;19.10;;;14.30;99.90;;;;;;4930055;29;20427;-68
2022/10/18 09:24:24;;;;;;;33.58;17.77;;;14.50;99.90;;;;;;4927529;29;20123;-68
2022/10/18 09:27:12;;;;;;;35.45;16.85;;;14.70;99.90;;;;;;4921036;29;20103;-68
2022/10/18 09:30:04;;;;;;;40.22;16.95;;;14.80;99.90;;;;;;4943705;28;20923;-70
2022/10/18 09:32:48;;;;;;;22.63;14.57;;;15.10;99.90;;;;;;4921888;29;20763;-69
2022/10/18 09:35:14;;;;;;;36.42;12.45;;;15.50;99.90;;;;;;4930290;29;20051;-69
2022/10/18 09:37:40;;;;;;;29.20;11.70;;;15.60;99.90;;;;;;4928490;29;20044;-69
2022/10/18 09:40:21;;;;;;;35.10;14.40;;;15.90;99.90;;;;;;4929910;29;20052;-69
2022/10/18 09:43:05;;;;;;;30.85;10.32;;;15.90;99.90;;;;;;4930238;29;20050;-69
2022/10/18 09:45:39;;;;;;;32.05;9.13;;;16.00;99.90;;;;;;4930247;29;20056;-69
2022/10/18 09:48:30;;;;;;;19.88;7.97;;;16.00;99.90;;;;;;4926863;29;20043;-69
2022/10/18 09:51:02;;;;;;;26.63;8.35;;;16.10;99.90;;;;;;4918089;29;20052;-68
2022/10/18 09:53:48;;;;;;;21.73;8.95;;;16.40;99.90;;;;;;4944382;29;20067;-69
2022/10/18 09:56:30;;;;;;;22.55;7.60;;;16.50;99.90;;;;;;4928675;29;20216;-69
2022/10/18 09:58:56;;;;;;;18.45;7.65;;;16.80;99.90;;;;;;4929917;29;20048;-68
2022/10/18 10:01:25;;;;;;;26.02;7.95;;;16.80;99.90;;;;;;4929755;29;20048;-69
2022/10/18 10:03:51;;;;;;;21.30;6.57;;;16.80;99.90;;;;;;4925373;29;20075;-68
2022/10/18 10:06:24;;;;;;;22.08;6.55;;;16.90;99.90;;;;;;4933233;29;20467;-68
2022/10/18 10:08:57;;;;;;;18.80;6.88;;;17.10;99.90;;;;;;4928378;29;20052;-68
2022/10/18 10:11:37;;;;;;;18.67;5.82;;;17.10;99.90;;;;;;4933038;29;20040;-69
2022/10/18 10:14:25;;;;;;;27.00;6.50;;;17.10;99.90;;;;;;4929815;29;20508;-68
2022/10/18 10:17:02;;;;;;;20.90;5.68;;;17.30;99.90;;;;;;4932801;29;20048;-69
2022/10/18 10:19:32;;;;;;;13.93;5.32;;;17.40;99.90;;;;;;4932997;29;20052;-69
2022/10/18 10:22:11;;;;;;;25.10;5.75;;;17.50;99.90;;;;;;4931023;29;20515;-68
2022/10/18 10:24:49;;;;;;;17.52;5.72;;;17.50;99.90;;;;;;4924508;29;20051;-68
2022/10/18 10:27:28;;;;;;;24.33;6.05;;;17.50;99.90;;;;;;4927355;29;20047;-68
2022/10/18 10:29:57;;;;;;;20.88;6.45;;;17.50;99.90;;;;;;4929976;29;20115;-69
2022/10/18 10:32:28;;;;;;;22.40;6.47;;;17.70;99.90;;;;;;4930946;29;20054;-69
2022/10/18 10:34:54;;;;;;;22.23;5.47;;;17.80;99.90;;;;;;4931881;29;20052;-69
2022/10/18 10:37:28;;;;;;;17.40;6.15;;;17.90;99.90;;;;;;4946567;29;20059;-68
2022/10/18 10:40:17;;;;;;;28.90;7.35;;;18.10;99.90;;;;;;4925614;29;20072;-69
2022/10/18 10:43:06;;;;;;;18.25;5.90;;;18.20;99.90;;;;;;4929990;29;20040;-69
2022/10/18 10:45:40;;;;;;;19.15;6.30;;;18.30;99.90;;;;;;4930623;29;20052;-69
2022/10/18 10:48:18;;;;;;;19.38;5.93;;;18.40;99.90;;;;;;4930778;29;20047;-68
2022/10/18 10:50:53;;;;;;;;;;;18.50;99.90;;;;;;4936848;29;20056;-68
2022/10/18 10:53:25;;;;;;;26.48;6.72;;;18.40;99.90;;;;;;4932513;29;19927;-68
2022/10/18 10:55:53;;;;;;;12.07;5.38;;;18.50;99.90;;;;;;4930221;29;20147;-69
2022/10/18 10:58:19;;;;;;;21.73;5.43;;;18.60;99.90;;;;;;4929059;29;20385;-68
2022/10/18 11:00:45;;;;;;;20.48;4.32;;;18.50;99.90;;;;;;4931313;29;20047;-68
2022/10/18 11:03:14;;;;;;;27.45;4.70;;;18.40;99.90;;;;;;4930640;29;20047;-68
2022/10/18 11:05:49;;;;;;;29.50;4.93;;;18.30;99.90;;;;;;4935914;29;20401;-68
2022/10/18 11:08:25;;;;;;;40.00;5.70;;;18.30;99.90;;;;;;4931707;29;20055;-68
2022/10/18 11:11:00;;;;;;;12.60;3.53;;;18.30;99.90;;;;;;4932235;29;20067;-68
2022/10/18 11:13:42;;;;;;;19.83;4.53;;;18.40;99.90;;;;;;4931818;29;20461;-68
2022/10/18 11:16:34;;;;;;;15.30;4.30;;;18.40;99.90;;;;;;4931724;29;20040;-68
2022/10/18 11:19:35;;;;;;;19.40;4.05;;;18.40;99.90;;;;;;4931583;29;20096;-68
2022/10/18 11:22:05;;;;;;;16.65;4.72;;;18.30;99.90;;;;;;4916572;29;20079;-68
2022/10/18 11:24:30;;;;;;;20.33;5.45;;;18.30;99.90;;;;;;4930187;29;20047;-68
2022/10/18 11:27:15;;;;;;;16.58;4.32;;;18.40;99.90;;;;;;4931982;29;20039;-69
2022/10/18 11:29:53;;;;;;;19.00;4.85;;;18.40;99.90;;;;;;4931867;29;20066;-68
2022/10/18 11:32:46;;;;;;;14.02;5.10;;;18.60;99.90;;;;;;4932231;29;20047;-68
2022/10/18 11:35:24;;;;;;;14.95;4.55;;;18.70;99.90;;;;;;4931910;29;20113;-67
2022/10/18 11:37:55;;;;;;;12.88;5.00;;;18.70;99.90;;;;;;4931900;29;20090;-68
2022/10/18 11:40:52;;;;;;;20.23;5.07;;;18.90;99.90;;;;;;4932020;29;20051;-67
2022/10/18 11:43:29;;;;;;;16.05;4.22;;;18.80;99.90;;;;;;4930585;29;20138;-68
2022/10/18 11:46:11;;;;;;;27.10;4.80;;;18.70;99.90;;;;;;4931613;29;20044;-68
2022/10/18 11:49:03;;;;;;;12.32;4.07;;;18.60;99.90;;;;;;4929569;29;20404;-68
2022/10/18 11:51:38;;;;;;;21.73;4.20;;;18.50;99.90;;;;;;4930105;29;20054;-68
2022/10/18 11:54:37;;;;;;;19.23;4.85;;;18.50;99.90;;;;;;4921039;29;20043;-68
2022/10/18 11:57:30;;;;;;;10.18;3.90;;;18.60;99.90;;;;;;4931409;29;20043;-68
2022/10/18 12:00:38;;;;;;;16.33;3.92;;;18.60;99.90;;;;;;4928309;29;20123;-68
2022/10/18 12:03:11;;;;;;;17.27;3.03;;;18.60;99.90;;;;;;4924878;29;20412;-69
2022/10/18 12:05:38;;;;;;;6.28;3.05;;;18.60;99.90;;;;;;4927314;29;20589;-68
2022/10/18 12:08:18;;;;;;;17.25;4.15;;;18.70;99.90;;;;;;4931006;29;20777;-68
2022/10/18 12:10:52;;;;;;;17.02;3.20;;;18.60;99.90;;;;;;4930802;29;20043;-69
2022/10/18 12:13:55;;;;;;;16.88;3.70;;;18.60;99.90;;;;;;4930902;29;20050;-68
2022/10/18 12:16:24;;;;;;;19.25;3.85;;;18.70;99.90;;;;;;4931239;29;20103;-69
2022/10/18 12:19:01;;;;;;;24.10;3.92;;;18.70;99.90;;;;;;4930418;29;20484;-69
2022/10/18 12:21:31;;;;;;;9.20;3.10;;;18.80;99.90;;;;;;4931319;29;20098;-69
2022/10/18 12:24:26;;;;;;;11.88;3.28;;;19.00;99.90;;;;;;4930344;29;20064;-69
2022/10/18 12:27:00;;;;;;;17.05;4.47;;;18.90;99.90;;;;;;4922983;29;20078;-69
2022/10/18 12:29:57;;;;;;;12.85;3.20;;;19.00;99.90;;;;;;4929537;29;20071;-69
2022/10/18 12:32:30;;;;;;;15.98;4.38;;;18.80;99.90;;;;;;4920025;29;20047;-69
2022/10/18 12:35:09;;;;;;;18.30;4.40;;;18.60;99.90;;;;;;4931225;29;20692;-69
2022/10/18 12:37:46;;;;;;;24.73;5.18;;;18.50;99.90;;;;;;4931127;29;20055;-69
2022/10/18 12:40:23;;;;;;;19.67;5.33;;;18.40;99.90;;;;;;4929096;29;20560;-69
2022/10/18 12:42:51;;;;;;;13.02;3.30;;;18.30;99.90;;;;;;4923836;29;20295;-70
2022/10/18 12:45:34;;;;;;;12.98;3.38;;;18.10;99.90;;;;;;4930834;29;20488;-70
2022/10/18 12:48:07;;;;;;;13.15;3.65;;;18.10;99.90;;;;;;4928858;29;20548;-70
2022/10/18 12:50:36;;;;;;;18.67;4.82;;;18.10;99.90;;;;;;4929025;29;20591;-69